Time;durP1;ratioP1;P1;durP2;ratioP2;P2;SDS_P1;SDS_P2;PMS_P1;PMS_P2;Temp;Humidity;BMP_temperature;BMP_pressure;BME280_temperature;BME280_humidity;BME280_pressure;Samples;Min_cycle;Max_cycle;Signal;HPM_P1;HPM_P2
2023/01/24 00:00:36;;;;;;;19.13;7.93;;;;;;;7.91;82.13;100352.47;5094160;28;20199;-91
2023/01/24 00:03:03;;;;;;;20.37;8.33;;;;;;;7.99;82.24;100345.34;5093761;28;20636;-91
2023/01/24 00:05:28;;;;;;;18.60;6.90;;;;;;;7.87;82.26;100353.44;5094013;28;20187;-90
2023/01/24 00:07:54;;;;;;;18.13;7.43;;;;;;;7.77;82.54;100346.72;5093577;28;20558;-91
2023/01/24 00:10:19;;;;;;;24.30;8.63;;;;;;;7.83;82.24;100354.44;5093972;28;20196;-91
2023/01/24 00:12:45;;;;;;;21.20;9.07;;;;;;;7.82;82.92;100355.31;5095373;28;20183;-90
2023/01/24 00:15:10;;;;;;;17.13;7.33;;;;;;;7.42;84.39;100354.41;5093726;28;20175;-91
2023/01/24 00:17:36;;;;;;;21.30;8.87;;;;;;;7.57;84.76;100350.66;5093817;28;20644;-91
2023/01/24 00:20:05;;;;;;;17.00;7.27;;;;;;;7.36;84.78;100354.56;5094567;28;20177;-91
2023/01/24 00:22:30;;;;;;;23.33;7.27;;;;;;;7.54;84.38;100362.00;5093528;28;20180;-91
2023/01/24 00:24:55;;;;;;;16.80;5.40;;;;;;;7.48;83.18;100362.13;5094311;28;20245;-91
2023/01/24 00:27:21;;;;;;;17.93;7.77;;;;;;;7.57;83.01;100364.56;5093558;28;20201;-91
2023/01/24 00:29:46;;;;;;;15.77;6.53;;;;;;;7.66;82.67;100361.75;5093353;28;20176;-91
2023/01/24 00:32:12;;;;;;;17.83;7.13;;;;;;;7.73;82.25;100355.50;5093255;28;20518;-90
2023/01/24 00:34:37;;;;;;;15.67;7.37;;;;;;;7.50;82.98;100364.69;5093087;28;20619;-91
2023/01/24 00:37:03;;;;;;;22.43;7.87;;;;;;;7.32;83.72;100360.72;5092961;28;20532;-90
2023/01/24 00:39:28;;;;;;;20.77;6.67;;;;;;;7.57;83.38;100361.09;5094637;28;20546;-91
2023/01/24 00:41:53;;;;;;;18.47;7.07;;;;;;;7.56;83.10;100362.84;5093035;28;20179;-90
2023/01/24 00:44:19;;;;;;;13.17;5.97;;;;;;;7.43;84.06;100358.75;5093037;28;20173;-90
2023/01/24 00:46:44;;;;;;;19.20;6.13;;;;;;;7.64;83.19;100355.72;5094380;28;20246;-91
2023/01/24 00:49:10;;;;;;;24.97;7.47;;;;;;;7.69;83.25;100359.06;5092892;28;20181;-91
2023/01/24 00:51:35;;;;;;;16.23;6.43;;;;;;;7.87;82.20;100349.97;5093829;28;20301;-91
2023/01/24 00:54:01;;;;;;;16.83;7.00;;;;;;;7.75;81.56;100353.75;5093894;28;20535;-91
2023/01/24 00:56:26;;;;;;;15.43;6.40;;;;;;;7.69;81.30;100363.44;5092821;28;20238;-90
2023/01/24 00:58:52;;;;;;;11.80;6.10;;;;;;;7.51;82.42;100351.63;5093344;28;20727;-90
2023/01/24 01:01:17;;;;;;;15.83;5.77;;;;;;;7.37;82.97;100353.66;5092687;28;20168;-90
2023/01/24 01:03:43;;;;;;;20.63;7.07;;;;;;;7.46;82.78;100353.50;5093895;28;20169;-90
2023/01/24 01:06:14;;;;;;;14.03;5.83;;;;;;;7.29;82.75;100359.03;5093391;28;20620;-89
2023/01/24 01:08:41;;;;;;;16.13;5.77;;;;;;;7.03;83.38;100360.41;5093817;28;20168;-91
2023/01/24 01:11:06;;;;;;;18.70;5.37;;;;;;;7.24;83.37;100358.28;5093813;28;20256;-92
2023/01/24 01:13:32;;;;;;;14.20;4.73;;;;;;;6.91;83.12;100361.53;5093793;28;20211;-90
2023/01/24 01:16:12;;;;;;;17.57;6.20;;;;;;;7.00;83.40;100368.28;5092804;28;20180;-91
2023/01/24 01:18:38;;;;;;;16.70;5.90;;;;;;;7.17;82.93;100361.88;5092516;28;20175;-91
2023/01/24 01:21:04;;;;;;;11.10;4.73;;;;;;;7.07;82.90;100356.88;5092580;28;20176;-91
2023/01/24 01:23:30;;;;;;;16.83;5.80;;;;;;;6.87;84.01;100366.78;5092278;28;20183;-91
2023/01/24 01:26:03;;;;;;;14.33;5.07;;;;;;;6.87;84.31;100361.59;5092156;28;20177;-91
2023/01/24 01:28:29;;;;;;;19.07;5.63;;;;;;;6.86;84.08;100365.09;5093874;28;20182;-90
2023/01/24 01:30:55;;;;;;;11.87;5.27;;;;;;;7.07;83.34;100356.88;5092221;28;20207;-91
2023/01/24 01:33:22;;;;;;;16.73;6.00;;;;;;;7.13;82.74;100354.13;5091991;28;20176;-91
2023/01/24 01:35:49;;;;;;;17.63;6.83;;;;;;;6.72;83.33;100363.59;5092215;28;20183;-91
2023/01/24 01:38:15;;;;;;;15.30;5.23;;;;;;;6.83;82.72;100366.00;5093063;28;20211;-90
2023/01/24 01:40:40;;;;;;;16.17;5.97;;;;;;;6.37;85.16;100373.72;5093342;28;20635;-90
2023/01/24 01:43:17;;;;;;;15.70;6.03;;;;;;;6.57;84.90;100366.47;5093077;28;20172;-91
2023/01/24 01:45:48;;;;;;;18.53;5.83;;;;;;;6.58;83.84;100360.34;5093637;28;20168;-90
2023/01/24 01:48:34;;;;;;;13.40;5.10;;;;;;;6.79;82.88;100369.53;5092331;28;20242;-90
2023/01/24 01:51:20;;;;;;;15.03;5.60;;;;;;;7.00;82.25;100368.28;5092127;28;20286;-91
2023/01/24 01:54:03;;;;;;;15.17;4.90;;;;;;;6.71;83.14;100372.28;5092902;28;20175;-91
2023/01/24 01:56:34;;;;;;;9.60;4.00;;;;;;;6.58;83.76;100372.50;5091989;28;20183;-90
2023/01/24 01:59:06;;;;;;;10.00;4.83;;;;;;;6.87;82.71;100374.63;5092066;28;20202;-91
2023/01/24 02:01:32;;;;;;;15.10;5.57;;;;;;;6.72;83.06;100373.16;5092046;28;20165;-90
2023/01/24 02:04:11;;;;;;;25.37;6.20;;;;;;;6.69;83.73;100368.84;5091891;28;20215;-91
2023/01/24 02:06:52;;;;;;;12.40;4.70;;;;;;;7.04;81.92;100369.97;5092903;28;20306;-91
2023/01/24 02:09:22;;;;;;;13.23;6.03;;;;;;;6.91;81.55;100366.72;5091882;28;20571;-91
2023/01/24 02:11:51;;;;;;;14.10;5.00;;;;;;;6.68;83.23;100374.94;5092454;28;20195;-91
2023/01/24 02:17:04;;;;;;;18.27;5.23;;;;;;;6.74;82.60;100364.41;5093403;28;20260;-90
2023/01/24 02:19:40;;;;;;;16.17;5.83;;;;;;;6.76;82.79;100374.84;5092320;28;20252;-91
2023/01/24 02:22:22;;;;;;;21.70;5.77;;;;;;;6.81;82.05;100373.84;5091745;28;20176;-91
2023/01/24 02:25:20;;;;;;;11.13;4.73;;;;;;;6.92;81.42;100380.63;5093296;28;20191;-91
2023/01/24 02:27:46;;;;;;;11.37;5.67;;;;;;;6.95;81.68;100372.72;5092655;28;20207;-91
2023/01/24 02:30:11;;;;;;;13.50;5.37;;;;;;;6.88;81.48;100377.22;5093197;28;20255;-91
2023/01/24 02:32:37;;;;;;;15.40;5.67;;;;;;;6.72;81.24;100373.16;5092529;28;20215;-91
2023/01/24 02:35:03;;;;;;;14.23;5.20;;;;;;;6.87;80.40;100380.69;5092580;28;20207;-91
2023/01/24 02:37:29;;;;;;;11.97;5.37;;;;;;;6.60;81.21;100379.41;5091483;28;20279;-91
2023/01/24 02:40:01;;;;;;;16.03;5.83;;;;;;;6.59;81.67;100376.84;5091601;28;20187;-90
2023/01/24 02:42:33;;;;;;;20.07;6.60;;;;;;;6.69;81.14;100378.41;5092773;28;20168;-91
2023/01/24 02:45:12;;;;;;;15.27;6.10;;;;;;;6.81;80.52;100384.25;5091733;28;20172;-91
2023/01/24 02:47:43;;;;;;;16.87;5.73;;;;;;;6.63;81.22;100381.97;5097072;28;20535;-91
2023/01/24 02:50:09;;;;;;;14.80;6.00;;;;;;;6.82;80.41;100399.03;5095224;28;20177;-91
2023/01/24 02:55:19;;;;;;;11.83;5.27;;;;;;;7.00;79.99;100394.34;5096397;28;20171;-91
2023/01/24 03:00:29;;;;;;;14.67;6.50;;;;;;;7.18;79.62;100389.66;5096589;28;20229;-91
2023/01/24 03:02:54;;;;;;;13.73;5.27;;;;;;;7.19;79.12;100394.00;5095746;28;20177;-91
2023/01/24 03:05:20;;;;;;;26.57;6.77;;;;;;;6.79;80.34;100406.88;5096149;28;20194;-91
2023/01/24 03:07:46;;;;;;;20.87;5.93;;;;;;;6.95;80.35;100402.25;5095114;28;20255;-91
2023/01/24 03:10:15;;;;;;;15.00;5.87;;;;;;;7.11;79.83;100408.06;5096391;28;20238;-91
2023/01/24 03:34:50;;;;;;;14.90;5.57;;;;;;;6.75;78.36;100414.78;5095626;28;20183;-91
2023/01/24 03:40:08;;;;;;;11.83;4.67;;;;;;;6.34;79.80;100398.97;5095809;28;20263;-91
2023/01/24 03:42:34;;;;;;;16.27;6.40;;;;;;;6.32;79.71;100401.59;5094190;28;20263;-91
2023/01/24 03:45:00;;;;;;;13.13;6.07;;;;;;;6.06;80.71;100401.09;5094370;28;20184;-91
2023/01/24 03:47:25;;;;;;;14.67;3.87;;;;;;;6.13;79.50;100398.38;5093966;28;20204;-91
2023/01/24 03:52:35;;;;;;;13.43;5.00;;;;;;;6.08;79.97;100408.00;5095229;28;20664;-91
2023/01/24 03:55:01;;;;;;;25.37;5.03;;;;;;;6.00;79.95;100406.41;5094827;28;20176;-91
2023/01/24 03:57:28;;;;;;;19.43;5.43;;;;;;;6.04;80.12;100403.75;5093596;28;20311;-92
2023/01/24 03:59:53;;;;;;;13.83;5.07;;;;;;;5.99;80.12;100402.94;5093826;28;20184;-90
2023/01/24 04:02:19;;;;;;;10.23;4.10;;;;;;;6.03;80.09;100407.22;5094405;28;20179;-91
2023/01/24 04:07:29;;;;;;;9.07;3.77;;;;;;;6.41;78.85;100409.25;5095279;28;20257;-91
2023/01/24 04:09:54;;;;;;;9.50;3.77;;;;;;;6.42;79.07;100413.56;5094604;28;20188;-91
2023/01/24 04:12:20;;;;;;;10.00;4.03;;;;;;;6.36;78.30;100420.63;5093889;28;20560;-91
2023/01/24 04:14:45;;;;;;;14.00;5.50;;;;;;;6.50;77.71;100424.72;5093847;28;20176;-90
2023/01/24 04:17:11;;;;;;;25.83;5.83;;;;;;;6.35;78.22;100430.19;5093981;28;20188;-91
2023/01/24 04:19:36;;;;;;;11.90;5.17;;;;;;;6.51;77.88;100426.47;5094486;28;20176;-91
2023/01/24 04:22:02;;;;;;;14.80;5.67;;;;;;;6.60;77.75;100428.91;5093703;28;20535;-91
2023/01/24 04:24:28;;;;;;;13.70;5.40;;;;;;;6.63;77.77;100423.66;5093726;28;20229;-91
2023/01/24 04:26:53;;;;;;;14.67;5.20;;;;;;;6.73;77.52;100427.00;5093362;28;20231;-91
2023/01/24 04:29:20;;;;;;;16.17;4.77;;;;;;;6.84;77.82;100429.41;5093622;28;20276;-91
2023/01/24 04:31:45;;;;;;;10.80;4.40;;;;;;;6.96;77.33;100423.97;5094225;28;20245;-91
2023/01/24 04:34:11;;;;;;;13.60;4.17;;;;;;;6.86;76.33;100418.09;5094379;28;20180;-91
2023/01/24 04:36:36;;;;;;;9.83;4.10;;;;;;;6.79;76.57;100425.13;5092989;28;20188;-91
2023/01/24 04:39:02;;;;;;;11.87;4.40;;;;;;;6.91;76.65;100418.00;5094375;28;20172;-91
2023/01/24 04:41:27;;;;;;;9.53;4.23;;;;;;;6.67;77.17;100416.66;5094055;28;20481;-91
2023/01/24 04:43:53;;;;;;;10.77;5.03;;;;;;;6.44;77.44;100411.81;5092941;28;20253;-91
2023/01/24 04:46:18;;;;;;;9.57;4.97;;;;;;;6.52;77.29;100414.31;5094207;28;20196;-91
2023/01/24 04:48:43;;;;;;;13.33;6.37;;;;;;;6.42;78.25;100421.38;5092872;28;20233;-91
2023/01/24 04:51:09;;;;;;;12.53;5.37;;;;;;;6.55;76.77;100420.31;5094196;28;20251;-91
2023/01/24 04:53:40;;;;;;;14.47;4.87;;;;;;;6.44;76.76;100424.84;5092750;28;20180;-91
2023/01/24 04:56:06;;;;;;;12.03;4.43;;;;;;;6.41;77.36;100424.03;5092777;28;20176;-91
2023/01/24 04:58:34;;;;;;;10.50;4.80;;;;;;;6.39;77.27;100416.25;5093799;28;20627;-91
2023/01/24 05:01:00;;;;;;;17.13;5.43;;;;;;;6.53;77.21;100418.63;5092702;28;20329;-91
2023/01/24 05:03:25;;;;;;;8.83;3.97;;;;;;;6.39;77.09;100420.59;5092795;28;20267;-91
2023/01/24 05:05:52;;;;;;;13.73;4.93;;;;;;;6.28;76.72;100420.75;5093758;28;20188;-90
2023/01/24 05:08:17;;;;;;;9.77;4.47;;;;;;;5.96;78.59;100423.81;5091931;28;20176;-91
2023/01/24 05:10:43;;;;;;;9.37;4.53;;;;;;;6.08;77.96;100422.75;5092865;28;20176;-91
2023/01/24 05:13:09;;;;;;;15.83;5.20;;;;;;;6.30;77.59;100426.78;5093801;28;20272;-91
2023/01/24 05:15:34;;;;;;;19.40;4.90;;;;;;;6.10;77.35;100429.69;5092398;28;20206;-91
2023/01/24 05:18:00;;;;;;;9.00;3.77;;;;;;;6.04;78.54;100434.97;5093608;28;20176;-91
2023/01/24 05:20:25;;;;;;;11.50;4.33;;;;;;;5.99;78.43;100428.09;5093352;28;20189;-90
2023/01/24 05:22:51;;;;;;;11.50;4.87;;;;;;;5.90;78.85;100436.03;5093569;28;20176;-91
2023/01/24 05:25:17;;;;;;;8.07;4.33;;;;;;;6.10;78.13;100444.44;5092237;28;20625;-91
2023/01/24 05:27:43;;;;;;;15.00;5.83;;;;;;;6.25;77.81;100433.81;5092771;28;20208;-91
2023/01/24 05:30:09;;;;;;;14.77;5.83;;;;;;;6.24;77.56;100437.28;5093282;28;20163;-91
2023/01/24 05:32:35;;;;;;;13.30;5.70;;;;;;;6.31;77.59;100428.53;5093021;28;20168;-91
2023/01/24 05:35:00;;;;;;;10.13;3.83;;;;;;;6.23;77.20;100434.72;5092078;28;20639;-91
2023/01/24 05:37:26;;;;;;;13.23;5.77;;;;;;;6.29;77.08;100435.47;5091918;28;20195;-91
2023/01/24 05:39:52;;;;;;;10.87;4.33;;;;;;;6.36;76.95;100437.13;5092113;28;20211;-91
2023/01/24 05:42:18;;;;;;;13.60;4.80;;;;;;;6.33;77.12;100434.56;5092921;28;20180;-91
2023/01/24 05:44:43;;;;;;;14.93;6.03;;;;;;;6.12;77.44;100438.34;5092385;28;20183;-90
2023/01/24 05:47:09;;;;;;;12.43;5.10;;;;;;;6.12;77.16;100437.47;5091899;28;20684;-91
2023/01/24 05:49:34;;;;;;;21.87;5.93;;;;;;;6.03;77.49;100428.03;5092039;28;20184;-90
2023/01/24 05:52:00;;;;;;;11.43;5.20;;;;;;;6.17;77.61;100435.66;5092887;28;20187;-91
2023/01/24 05:54:25;;;;;;;10.53;4.90;;;;;;;6.16;76.94;100433.94;5091995;28;20245;-91
2023/01/24 05:56:50;;;;;;;9.70;4.83;;;;;;;5.95;77.40;100432.47;5092823;28;20182;-91
2023/01/24 05:59:16;;;;;;;12.43;4.57;;;;;;;5.81;77.92;100437.00;5092822;28;20195;-91
2023/01/24 06:01:41;;;;;;;13.20;5.27;;;;;;;6.10;78.10;100449.66;5092475;28;20661;-90
2023/01/24 06:04:07;;;;;;;12.07;5.37;;;;;;;6.16;76.97;100450.41;5091824;28;20618;-91
2023/01/24 06:06:32;;;;;;;11.90;4.63;;;;;;;6.18;77.14;100463.44;5091779;28;20200;-91
2023/01/24 06:08:58;;;;;;;10.73;4.90;;;;;;;6.19;76.85;100457.31;5092869;28;20622;-91
2023/01/24 06:11:27;;;;;;;7.90;3.67;;;;;;;6.28;76.05;100462.41;5092833;28;20581;-91
2023/01/24 06:13:54;;;;;;;7.57;4.57;;;;;;;5.59;78.15;100461.53;5092996;28;20523;-91
2023/01/24 06:16:22;;;;;;;10.07;4.17;;;;;;;5.66;78.69;100462.31;5093230;28;20218;-91
2023/01/24 06:18:49;;;;;;;13.10;4.70;;;;;;;5.63;79.13;100465.81;5092953;28;20176;-91
2023/01/24 06:21:20;;;;;;;10.43;4.73;;;;;;;5.72;78.14;100454.44;5096550;28;20191;-90
2023/01/24 06:23:46;;;;;;;10.37;3.77;;;;;;;5.67;79.00;100461.44;5096915;28;20179;-91
2023/01/24 06:26:11;;;;;;;16.17;4.90;;;;;;;5.79;78.54;100472.53;5095540;28;20168;-91
2023/01/24 06:28:38;;;;;;;15.80;5.17;;;;;;;5.71;78.64;100473.53;5095553;28;20187;-91
2023/01/24 06:31:33;;;;;;;11.97;4.20;;;;;;;5.84;77.59;100472.50;5095507;28;20263;-90
2023/01/24 06:34:23;;;;;;;11.97;5.07;;;;;;;5.69;77.97;100483.06;5086232;28;20546;-91
2023/01/24 06:36:51;;;;;;;9.33;4.20;;;;;;;5.98;77.37;100481.03;5096676;28;20587;-91
2023/01/24 06:39:16;;;;;;;7.07;4.17;;;;;;;6.09;77.28;100484.34;5095662;28;20271;-90
2023/01/24 06:41:43;;;;;;;9.27;4.30;;;;;;;5.75;77.88;100481.28;5096254;28;20590;-90
2023/01/24 06:44:10;;;;;;;13.23;4.30;;;;;;;5.68;78.20;100486.56;5096077;28;20294;-91
2023/01/24 06:46:36;;;;;;;10.97;3.80;;;;;;;5.95;78.01;100481.94;5095022;28;20557;-91
2023/01/24 06:49:01;;;;;;;11.90;4.77;;;;;;;5.85;77.57;100484.66;5095437;28;20259;-91
2023/01/24 06:51:26;;;;;;;12.43;4.47;;;;;;;6.11;77.33;100479.97;5096130;28;20261;-91
2023/01/24 06:53:52;;;;;;;12.20;4.83;;;;;;;5.91;76.84;100485.47;5094972;28;20172;-91
2023/01/24 06:56:17;;;;;;;10.17;4.47;;;;;;;5.69;78.46;100489.16;5095037;28;20183;-90
2023/01/24 06:58:43;;;;;;;10.53;4.87;;;;;;;5.50;78.17;100496.28;5095780;28;20184;-90
2023/01/24 07:01:08;;;;;;;11.57;4.23;;;;;;;5.54;78.12;100485.00;5095281;28;20252;-91
2023/01/24 07:03:34;;;;;;;19.60;5.37;;;;;;;5.45;77.77;100494.63;5094847;28;20634;-90
2023/01/24 07:05:59;;;;;;;12.00;4.53;;;;;;;5.31;78.81;100499.09;5096096;28;20572;-91
2023/01/24 07:08:25;;;;;;;13.63;4.70;;;;;;;5.18;79.42;100498.34;5095040;28;20184;-91
2023/01/24 07:10:50;;;;;;;11.53;4.80;;;;;;;5.45;78.52;100498.06;5094787;28;20176;-91
2023/01/24 07:13:16;;;;;;;11.73;4.60;;;;;;;5.47;78.36;100501.53;5094927;28;20258;-91
2023/01/24 07:15:41;;;;;;;14.07;4.17;;;;;;;5.51;78.75;100500.63;5095578;28;20643;-91
2023/01/24 07:18:08;;;;;;;10.97;4.43;;;;;;;5.75;77.24;100493.41;5095980;28;20183;-91
2023/01/24 07:20:34;;;;;;;13.73;5.10;;;;;;;5.68;77.65;100504.78;5094563;28;20190;-91
2023/01/24 07:23:00;;;;;;;7.83;3.43;;;;;;;5.54;78.67;100510.13;5094770;28;20623;-92
2023/01/24 07:25:26;;;;;;;9.37;4.37;;;;;;;5.58;78.12;100510.06;5094788;28;20208;-91
2023/01/24 07:27:52;;;;;;;9.83;3.90;;;;;;;5.61;77.96;100510.94;5095676;28;20192;-90
2023/01/24 07:30:18;;;;;;;9.63;4.40;;;;;;;5.50;78.81;100513.66;5094295;28;20283;-91
2023/01/24 07:32:43;;;;;;;12.53;4.80;;;;;;;5.26;78.94;100521.69;5093570;28;20211;-90
2023/01/24 07:35:09;;;;;;;10.73;3.77;;;;;;;5.54;79.09;100524.00;5094894;28;20183;-91
2023/01/24 07:37:35;;;;;;;13.20;4.27;;;;;;;5.70;78.75;100516.03;5094391;28;20544;-91
2023/01/24 07:40:00;;;;;;;13.83;5.37;;;;;;;5.99;77.98;100504.44;5094217;28;20172;-91
2023/01/24 07:42:26;;;;;;;12.33;4.03;;;;;;;6.20;77.05;100511.13;5094558;28;20181;-91
2023/01/24 07:44:53;;;;;;;10.83;4.43;;;;;;;5.94;77.50;100515.78;5094700;28;20661;-91
2023/01/24 07:47:19;;;;;;;8.53;4.00;;;;;;;5.82;77.41;100511.53;5094963;28;20204;-91
2023/01/24 07:49:44;;;;;;;9.83;4.60;;;;;;;5.97;76.96;100527.03;5094942;28;20530;-91
2023/01/24 07:52:10;;;;;;;9.70;4.47;;;;;;;5.83;77.72;100528.03;5094803;28;20172;-91
2023/01/24 07:54:35;;;;;;;13.20;4.17;;;;;;;6.04;76.88;100520.00;5093924;28;20672;-91
2023/01/24 07:57:01;;;;;;;12.17;4.70;;;;;;;6.14;77.50;100517.25;5093807;28;20190;-91
2023/01/24 07:59:26;;;;;;;9.23;4.03;;;;;;;6.26;77.19;100524.06;5095148;28;20168;-91
2023/01/24 08:01:52;;;;;;;9.90;4.67;;;;;;;6.23;76.38;100518.91;5094779;28;20619;-91
2023/01/24 08:04:17;;;;;;;14.37;5.17;;;;;;;6.35;76.07;100513.50;5094062;28;20203;-90
2023/01/24 08:07:16;;;;;;;14.17;5.10;;;;;;;6.18;76.46;100508.53;5094657;28;20203;-91
2023/01/24 08:09:28;;;;;;;8.70;3.87;;;;;;;6.24;76.31;100510.19;5094530;28;20219;-91
2023/01/24 08:11:55;;;;;;;13.90;4.87;;;;;;;6.26;76.70;100507.59;5093604;28;20188;-91
2023/01/24 08:14:21;;;;;;;8.30;3.57;;;;;;;6.41;75.37;100509.97;5093547;28;20187;-91
2023/01/24 08:16:50;;;;;;;15.47;4.37;;;;;;;6.13;76.20;100512.09;5094795;28;20172;-91
2023/01/24 08:19:16;;;;;;;11.10;4.47;;;;;;;5.97;76.97;100515.75;5093413;28;20176;-92
2023/01/24 08:21:41;;;;;;;12.33;4.47;;;;;;;5.96;77.85;100527.03;5093467;28;20187;-91
2023/01/24 08:24:07;;;;;;;12.57;4.80;;;;;;;5.99;77.35;100527.00;5093853;28;20513;-90
2023/01/24 08:26:32;;;;;;;13.80;5.53;;;;;;;6.15;77.17;100531.16;5093225;28;20667;-91
2023/01/24 08:28:58;;;;;;;13.00;4.50;;;;;;;6.18;76.84;100538.94;5093595;28;20180;-91
2023/01/24 08:31:23;;;;;;;14.47;5.40;;;;;;;6.22;77.63;100535.38;5093669;28;20172;-91
2023/01/24 08:33:49;;;;;;;16.97;6.03;;;;;;;6.29;77.51;100538.78;5093168;28;20639;-91
2023/01/24 08:36:14;;;;;;;11.77;4.47;;;;;;;6.36;77.81;100541.28;5092926;28;20183;-91
2023/01/24 08:38:40;;;;;;;9.13;3.53;;;;;;;6.42;76.54;100541.19;5093944;28;20267;-91
2023/01/24 08:41:05;;;;;;;7.07;4.10;;;;;;;6.59;75.12;100546.19;5093966;28;20183;-92
2023/01/24 08:43:31;;;;;;;11.80;4.70;;;;;;;6.37;74.22;100547.38;5091975;28;20198;-91
2023/01/24 08:45:56;;;;;;;10.40;4.57;;;;;;;6.28;75.48;100550.94;5093224;28;20216;-91
2023/01/24 08:48:22;;;;;;;10.20;4.47;;;;;;;6.44;74.90;100549.88;5092780;28;20238;-91
2023/01/24 08:50:48;;;;;;;8.57;3.77;;;;;;;6.55;74.46;100550.56;5092851;28;20187;-91
2023/01/24 08:53:14;;;;;;;12.90;4.50;;;;;;;6.53;73.97;100554.94;5094601;28;20252;-91
2023/01/24 08:55:40;;;;;;;13.77;4.60;;;;;;;6.71;73.78;100549.47;5093746;28;20638;-91
2023/01/24 08:58:05;;;;;;;7.57;3.43;;;;;;;6.49;73.81;100548.06;5093648;28;20172;-91
2023/01/24 09:00:31;;;;;;;11.03;4.43;;;;;;;6.59;73.13;100543.56;5094000;28;20186;-92
2023/01/24 09:03:00;;;;;;;9.10;3.87;;;;;;;6.48;74.76;100545.47;5093791;28;20324;-92
2023/01/24 09:05:27;;;;;;;7.57;3.93;;;;;;;6.26;74.71;100541.44;5093436;28;20194;-91
2023/01/24 09:07:52;;;;;;;9.33;3.87;;;;;;;6.43;74.36;100536.84;5092433;28;20193;-91
2023/01/24 09:10:18;;;;;;;10.07;3.83;;;;;;;6.50;73.96;100543.72;5092407;28;20180;-91
2023/01/24 09:12:43;;;;;;;18.57;4.37;;;;;;;6.57;74.21;100538.41;5093235;28;20180;-91
2023/01/24 09:15:09;;;;;;;11.33;4.57;;;;;;;6.65;74.13;100538.28;5092743;28;20634;-91
2023/01/24 09:17:36;;;;;;;9.23;3.50;;;;;;;6.66;73.30;100535.66;5092732;28;20168;-91
2023/01/24 09:20:01;;;;;;;12.93;4.13;;;;;;;6.42;73.99;100533.38;5092671;28;20254;-91
2023/01/24 09:22:27;;;;;;;9.90;3.37;;;;;;;6.38;74.68;100523.91;5093534;28;20702;-91
2023/01/24 09:24:53;;;;;;;7.03;3.23;;;;;;;6.49;74.44;100522.00;5092290;28;20259;-91
2023/01/24 09:27:18;;;;;;;8.53;3.37;;;;;;;6.54;73.23;100522.81;5092126;28;20204;-90
2023/01/24 09:29:43;;;;;;;10.13;3.60;;;;;;;6.48;75.18;100522.88;5092502;28;20615;-91
2023/01/24 09:32:09;;;;;;;8.97;3.90;;;;;;;6.71;74.67;100520.81;5093196;28;20196;-91
2023/01/24 09:34:34;;;;;;;9.27;3.50;;;;;;;6.88;74.00;100514.47;5092154;28;20259;-91
2023/01/24 09:37:00;;;;;;;9.27;3.47;;;;;;;6.91;74.39;100515.31;5092152;28;20184;-92
2023/01/24 09:39:25;;;;;;;7.97;3.57;;;;;;;6.96;74.03;100512.63;5093323;28;20246;-92
2023/01/24 09:42:03;;;;;;;8.43;3.73;;;;;;;6.89;74.20;100511.88;5092133;28;20683;-91
2023/01/24 09:44:54;;;;;;;11.63;4.23;;;;;;;6.91;73.53;100501.41;5093683;28;20530;-91
2023/01/24 09:47:39;;;;;;;8.73;3.63;;;;;;;7.16;73.65;100506.19;5093328;28;20199;-91
2023/01/24 09:50:15;;;;;;;10.27;3.97;;;;;;;7.00;72.29;100503.84;5092057;28;20169;-92
2023/01/24 09:52:44;;;;;;;11.27;3.97;;;;;;;7.14;71.88;100501.88;5093333;28;20168;-92
2023/01/24 09:55:30;;;;;;;10.67;4.30;;;;;;;7.33;72.10;100490.25;5095408;28;20183;-91
2023/01/24 09:58:01;;;;;;;9.57;4.10;;;;;;;7.26;71.24;100499.03;5096899;28;20164;-92
2023/01/24 10:00:36;;;;;;;7.67;3.10;;;;;;;7.09;72.10;100498.50;5097440;28;20186;-91
2023/01/24 10:03:12;;;;;;;7.03;3.17;;;;;;;7.02;72.12;100494.28;5096060;28;20244;-90
2023/01/24 10:05:39;;;;;;;8.13;3.60;;;;;;;7.03;71.78;100493.38;5097342;28;20160;-91
2023/01/24 10:08:34;;;;;;;10.30;3.93;;;;;;;6.93;72.31;100486.59;5096508;28;20273;-91
2023/01/24 10:11:15;;;;;;;13.87;4.00;;;;;;;6.80;72.93;100485.94;5060356;28;20224;-91
2023/01/24 10:13:55;;;;;;;10.00;3.87;;;;;;;7.05;72.41;100489.00;5091798;28;20636;-91
2023/01/24 10:16:26;;;;;;;8.87;4.13;;;;;;;6.87;72.37;100484.94;5086993;28;20271;-91
2023/01/24 10:19:21;;;;;;;7.97;3.67;;;;;;;7.27;71.86;100478.19;5094677;28;20635;-92
2023/01/24 10:22:06;;;;;;;6.17;2.60;;;;;;;7.32;71.25;100475.47;5095273;28;20169;-92
2023/01/24 10:24:37;;;;;;;7.63;3.40;;;;;;;7.17;70.39;100460.09;5095447;28;20263;-91
2023/01/24 10:27:16;;;;;;;8.07;3.30;;;;;;;7.15;70.56;100461.88;5095623;28;20705;-91
2023/01/24 10:29:43;;;;;;;7.57;2.43;;;;;;;7.23;70.34;100457.41;5096266;28;20246;-92
2023/01/24 10:32:16;;;;;;;6.27;2.80;;;;;;;6.98;70.51;100458.69;5095431;28;20176;-91
2023/01/24 10:34:49;;;;;;;8.57;3.10;;;;;;;6.41;70.67;100457.88;5095932;28;20296;-91
2023/01/24 10:37:22;;;;;;;10.93;3.43;;;;;;;6.39;72.24;100457.91;5095270;28;20189;-90
2023/01/24 10:39:47;;;;;;;8.33;3.37;;;;;;;6.40;72.56;100453.53;5095937;28;20203;-91
2023/01/24 10:42:25;;;;;;;6.30;2.50;;;;;;;6.62;72.22;100455.81;5095986;28;20173;-91
2023/01/24 10:44:55;;;;;;;6.43;3.47;;;;;;;6.94;71.44;100457.03;5095698;28;20180;-91
2023/01/24 10:47:26;;;;;;;10.00;3.37;;;;;;;7.31;70.21;100447.69;5084189;28;20232;-91
2023/01/24 10:50:05;;;;;;;4.50;2.53;;;;;;;7.26;68.95;100441.69;5094067;28;20191;-92
2023/01/24 10:52:33;;;;;;;6.67;3.10;;;;;;;7.43;68.03;100437.88;5095892;28;20165;-91
2023/01/24 10:55:01;;;;;;;8.63;3.33;;;;;;;7.52;67.73;100439.44;5094536;28;20235;-91
2023/01/24 10:57:44;;;;;;;6.23;2.90;;;;;;;7.33;67.23;100435.47;5111921;28;20179;-91
2023/01/24 11:00:33;;;;;;;6.20;2.73;;;;;;;7.22;67.55;100433.06;5109499;28;20228;-91
2023/01/24 11:03:01;;;;;;;6.53;2.63;;;;;;;7.07;67.29;100432.50;5094542;28;20263;-91
2023/01/24 11:05:43;;;;;;;5.57;2.33;;;;;;;7.41;67.83;100430.97;5094550;28;20191;-91
2023/01/24 11:08:18;;;;;;;8.17;2.60;;;;;;;7.39;67.78;100427.50;5094047;28;20681;-91
2023/01/24 11:10:43;;;;;;;7.63;2.70;;;;;;;7.34;66.78;100422.41;5094456;28;20711;-91
2023/01/24 11:13:40;;;;;;;4.63;2.03;;;;;;;7.65;66.89;100412.19;5095732;28;20196;-91
2023/01/24 11:16:20;;;;;;;7.13;2.30;;;;;;;7.78;66.66;100410.22;5094566;28;20612;-92
2023/01/24 11:18:50;;;;;;;5.77;2.40;;;;;;;7.90;66.90;100413.44;5094678;28;20614;-92
2023/01/24 11:21:18;;;;;;;9.63;3.80;;;;;;;7.85;65.20;100415.28;5095774;28;20215;-91
2023/01/24 11:23:44;;;;;;;8.47;3.00;;;;;;;7.66;65.71;100403.50;5095675;28;20181;-92
2023/01/24 11:26:22;;;;;;;5.50;2.40;;;;;;;7.25;66.58;100413.91;5094960;28;20181;-91
2023/01/24 11:28:57;;;;;;;5.63;3.07;;;;;;;7.39;67.20;100409.25;5094386;28;20250;-91
2023/01/24 11:31:37;;;;;;;7.60;3.13;;;;;;;7.61;66.21;100414.91;5095134;28;20682;-91
2023/01/24 11:34:10;;;;;;;6.77;2.97;;;;;;;7.85;65.04;100409.19;5094321;28;20608;-92
2023/01/24 11:36:36;;;;;;;7.77;3.30;;;;;;;7.91;65.18;100409.06;5092834;28;20610;-91
2023/01/24 11:39:22;;;;;;;6.93;2.93;;;;;;;8.11;65.05;100404.25;5093108;28;20181;-91
2023/01/24 11:42:05;;;;;;;5.43;2.47;;;;;;;8.27;63.68;100397.84;5089404;28;20206;-91
2023/01/24 11:45:17;;;;;;;4.87;2.23;;;;;;;7.94;64.41;100402.00;5096175;28;20283;-91
2023/01/24 11:48:15;;;;;;;6.80;2.60;;;;;;;7.99;63.72;100409.78;5094235;28;20224;-91
2023/01/24 11:50:53;;;;;;;6.03;2.93;;;;;;;8.15;63.06;100407.69;5059754;28;20611;-91
2023/01/24 11:53:42;;;;;;;4.47;2.20;;;;;;;8.32;63.37;100401.19;5093792;28;20222;-91
2023/01/24 11:56:45;;;;;;;6.07;1.80;;;;;;;8.04;63.58;100406.13;5111010;28;20229;-91
2023/01/24 11:59:37;;;;;;;4.77;2.63;;;;;;;8.11;63.19;100406.00;5039706;28;20195;-91
2023/01/24 12:02:40;;;;;;;8.67;3.03;;;;;;;8.22;63.39;100404.03;5093796;28;20172;-91
2023/01/24 12:05:24;;;;;;;6.93;2.47;;;;;;;8.25;63.71;100409.19;5110402;28;20692;-91
2023/01/24 12:08:26;;;;;;;5.00;2.03;;;;;;;8.16;63.33;100404.16;5093077;28;20539;-91
2023/01/24 12:11:01;;;;;;;4.77;2.43;;;;;;;8.23;63.58;100403.16;5094563;28;20184;-91
2023/01/24 12:14:09;;;;;;;3.87;1.70;;;;;;;7.92;63.59;100405.56;5109902;28;20176;-91
2023/01/24 12:16:43;;;;;;;6.37;2.43;;;;;;;8.19;63.23;100401.47;5045319;28;20196;-91